Terminal Aerodrome Forecast
Issued by NWS

Home | Current Version | Previous Version | Graphics & Text | Print | Product List | Glossary On
Versions: 1 2 3 4 5 6 7 8 9 10 11 12 13 14 15 16 17 18 19 20 21 22 23 24 25 26
090
FTUS43 KBIS 171506 AAB
TAFJMS
TAF AMD
KJMS 171506Z 1715/1812 27005KT P6SM BKN019
     FM171600 25005KT P6SM SCT022
      TEMPO 1716/1717 BKN022
     FM171900 23008KT P6SM SCT250
     FM172300 20007KT P6SM SCT090 SCT200
     FM180400 15005KT P6SM BKN090=

USA.gov is the U.S. government's official web portal to all federal, state and local government web resources and services.